Terminal Aerodrome Forecast
Issued by NWS Pocatello, ID

Home | Current Version | Previous Version | Text Only | Print | Product List | Glossary On
Versions: 1 2 3 4 5 6 7 8 9 10 11 12 13 14 15 16 17 18 19 20
000
FTUS45 KPIH 201120
TAFIDA
TAF
KIDA 201120Z 2012/2112 01008KT P6SM SCT030 BKN050
     FM201800 22011KT P6SM VCSH SCT020 BKN035
     FM210200 19009KT P6SM SCT030
     FM210800 20006KT P6SM SCT025 BKN080=

USA.gov is the U.S. government's official web portal to all federal, state and local government web resources and services.